sensor_id;sensor_type;location;lat;lon;timestamp;P1;durP1;ratioP1;P2;durP2;ratioP2
2416;SDS011;1219;48.736;9.330;2023-07-09T00:02:20;4.10;;;3.70;;
2416;SDS011;1219;48.736;9.330;2023-07-09T00:04:47;4.03;;;3.20;;
2416;SDS011;1219;48.736;9.330;2023-07-09T00:07:29;4.00;;;3.70;;
2416;SDS011;1219;48.736;9.330;2023-07-09T00:09:56;4.73;;;3.90;;
2416;SDS011;1219;48.736;9.330;2023-07-09T00:12:22;5.07;;;3.47;;
2416;SDS011;1219;48.736;9.330;2023-07-09T00:14:49;4.37;;;4.03;;
2416;SDS011;1219;48.736;9.330;2023-07-09T00:17:23;4.00;;;3.60;;
2416;SDS011;1219;48.736;9.330;2023-07-09T00:19:51;3.60;;;3.30;;
2416;SDS011;1219;48.736;9.330;2023-07-09T00:22:17;3.50;;;3.30;;
2416;SDS011;1219;48.736;9.330;2023-07-09T00:24:48;5.47;;;4.00;;
2416;SDS011;1219;48.736;9.330;2023-07-09T00:27:16;5.40;;;3.60;;
2416;SDS011;1219;48.736;9.330;2023-07-09T00:29:43;8.47;;;4.30;;
2416;SDS011;1219;48.736;9.330;2023-07-09T00:32:16;4.07;;;3.67;;
2416;SDS011;1219;48.736;9.330;2023-07-09T00:34:45;4.63;;;4.23;;
2416;SDS011;1219;48.736;9.330;2023-07-09T00:37:14;4.80;;;4.20;;
2416;SDS011;1219;48.736;9.330;2023-07-09T00:39:41;4.00;;;3.70;;
2416;SDS011;1219;48.736;9.330;2023-07-09T00:42:13;4.47;;;3.90;;
2416;SDS011;1219;48.736;9.330;2023-07-09T00:44:44;4.50;;;4.10;;
2416;SDS011;1219;48.736;9.330;2023-07-09T00:47:15;4.17;;;3.87;;
2416;SDS011;1219;48.736;9.330;2023-07-09T00:49:43;4.40;;;4.00;;
2416;SDS011;1219;48.736;9.330;2023-07-09T00:52:27;5.03;;;3.90;;
2416;SDS011;1219;48.736;9.330;2023-07-09T00:54:57;4.80;;;4.30;;
2416;SDS011;1219;48.736;9.330;2023-07-09T00:57:25;6.47;;;4.10;;
2416;SDS011;1219;48.736;9.330;2023-07-09T00:59:56;4.60;;;4.03;;
2416;SDS011;1219;48.736;9.330;2023-07-09T01:02:24;6.07;;;4.20;;
2416;SDS011;1219;48.736;9.330;2023-07-09T01:04:55;4.63;;;4.13;;
2416;SDS011;1219;48.736;9.330;2023-07-09T01:07:23;4.23;;;3.47;;
2416;SDS011;1219;48.736;9.330;2023-07-09T01:09:49;3.97;;;3.67;;
2416;SDS011;1219;48.736;9.330;2023-07-09T01:12:16;4.10;;;3.80;;
2416;SDS011;1219;48.736;9.330;2023-07-09T01:14:44;4.40;;;4.00;;
2416;SDS011;1219;48.736;9.330;2023-07-09T01:17:13;5.20;;;4.00;;
2416;SDS011;1219;48.736;9.330;2023-07-09T01:19:41;4.73;;;4.37;;
2416;SDS011;1219;48.736;9.330;2023-07-09T01:22:11;3.67;;;3.47;;
2416;SDS011;1219;48.736;9.330;2023-07-09T01:27:16;3.93;;;3.63;;
2416;SDS011;1219;48.736;9.330;2023-07-09T01:29:42;4.50;;;4.10;;
2416;SDS011;1219;48.736;9.330;2023-07-09T01:32:14;4.17;;;3.77;;
2416;SDS011;1219;48.736;9.330;2023-07-09T01:34:43;3.93;;;3.47;;
2416;SDS011;1219;48.736;9.330;2023-07-09T01:37:09;5.20;;;4.40;;
2416;SDS011;1219;48.736;9.330;2023-07-09T01:39:35;5.13;;;4.13;;
2416;SDS011;1219;48.736;9.330;2023-07-09T01:42:01;4.47;;;4.07;;
2416;SDS011;1219;48.736;9.330;2023-07-09T01:44:27;3.70;;;3.40;;
2416;SDS011;1219;48.736;9.330;2023-07-09T01:46:54;4.87;;;3.93;;
2416;SDS011;1219;48.736;9.330;2023-07-09T01:49:20;5.73;;;3.70;;
2416;SDS011;1219;48.736;9.330;2023-07-09T01:51:46;3.23;;;3.03;;
2416;SDS011;1219;48.736;9.330;2023-07-09T01:54:14;4.53;;;3.73;;
2416;SDS011;1219;48.736;9.330;2023-07-09T01:56:42;4.07;;;3.77;;
2416;SDS011;1219;48.736;9.330;2023-07-09T01:59:08;5.90;;;4.23;;
2416;SDS011;1219;48.736;9.330;2023-07-09T02:01:36;3.70;;;3.40;;
2416;SDS011;1219;48.736;9.330;2023-07-09T02:04:03;3.83;;;3.50;;
2416;SDS011;1219;48.736;9.330;2023-07-09T02:06:29;5.00;;;4.10;;
2416;SDS011;1219;48.736;9.330;2023-07-09T02:08:58;4.37;;;3.97;;
2416;SDS011;1219;48.736;9.330;2023-07-09T02:11:24;5.20;;;3.63;;
2416;SDS011;1219;48.736;9.330;2023-07-09T02:13:50;4.93;;;4.27;;
2416;SDS011;1219;48.736;9.330;2023-07-09T02:16:16;4.70;;;3.60;;
2416;SDS011;1219;48.736;9.330;2023-07-09T02:18:42;4.30;;;3.90;;
2416;SDS011;1219;48.736;9.330;2023-07-09T02:21:08;4.50;;;4.10;;
2416;SDS011;1219;48.736;9.330;2023-07-09T02:23:33;4.17;;;3.80;;
2416;SDS011;1219;48.736;9.330;2023-07-09T02:25:59;3.93;;;3.23;;
2416;SDS011;1219;48.736;9.330;2023-07-09T02:28:25;5.00;;;4.00;;
2416;SDS011;1219;48.736;9.330;2023-07-09T02:30:51;5.13;;;4.23;;
2416;SDS011;1219;48.736;9.330;2023-07-09T02:33:17;4.40;;;3.80;;
2416;SDS011;1219;48.736;9.330;2023-07-09T02:35:45;4.37;;;4.07;;
2416;SDS011;1219;48.736;9.330;2023-07-09T02:38:11;4.23;;;3.93;;
2416;SDS011;1219;48.736;9.330;2023-07-09T02:40:38;4.70;;;4.20;;
2416;SDS011;1219;48.736;9.330;2023-07-09T02:43:04;8.40;;;3.77;;
2416;SDS011;1219;48.736;9.330;2023-07-09T02:45:30;4.80;;;3.93;;
2416;SDS011;1219;48.736;9.330;2023-07-09T02:47:56;4.10;;;3.57;;
2416;SDS011;1219;48.736;9.330;2023-07-09T02:50:22;4.23;;;3.90;;
2416;SDS011;1219;48.736;9.330;2023-07-09T02:52:48;4.63;;;3.70;;
2416;SDS011;1219;48.736;9.330;2023-07-09T02:55:14;4.10;;;3.70;;
2416;SDS011;1219;48.736;9.330;2023-07-09T02:57:40;3.87;;;3.57;;
2416;SDS011;1219;48.736;9.330;2023-07-09T03:00:06;4.27;;;3.87;;
2416;SDS011;1219;48.736;9.330;2023-07-09T03:02:33;5.83;;;4.70;;
2416;SDS011;1219;48.736;9.330;2023-07-09T03:04:59;3.80;;;3.50;;
2416;SDS011;1219;48.736;9.330;2023-07-09T03:07:25;4.47;;;4.07;;
2416;SDS011;1219;48.736;9.330;2023-07-09T03:09:51;4.63;;;4.23;;
2416;SDS011;1219;48.736;9.330;2023-07-09T03:12:17;3.97;;;3.63;;
2416;SDS011;1219;48.736;9.330;2023-07-09T03:14:47;7.13;;;4.13;;
2416;SDS011;1219;48.736;9.330;2023-07-09T03:17:13;3.93;;;3.63;;
2416;SDS011;1219;48.736;9.330;2023-07-09T03:19:39;4.47;;;4.07;;
2416;SDS011;1219;48.736;9.330;2023-07-09T03:22:04;4.60;;;4.20;;
2416;SDS011;1219;48.736;9.330;2023-07-09T03:24:30;6.63;;;4.77;;
2416;SDS011;1219;48.736;9.330;2023-07-09T03:26:56;4.20;;;3.90;;
2416;SDS011;1219;48.736;9.330;2023-07-09T03:29:22;3.80;;;3.47;;
2416;SDS011;1219;48.736;9.330;2023-07-09T03:31:48;5.03;;;4.23;;
2416;SDS011;1219;48.736;9.330;2023-07-09T03:34:14;4.80;;;4.40;;
2416;SDS011;1219;48.736;9.330;2023-07-09T03:36:41;4.00;;;3.60;;
2416;SDS011;1219;48.736;9.330;2023-07-09T03:39:07;3.43;;;3.20;;
2416;SDS011;1219;48.736;9.330;2023-07-09T03:41:33;5.10;;;4.70;;
2416;SDS011;1219;48.736;9.330;2023-07-09T03:43:59;6.47;;;3.93;;
2416;SDS011;1219;48.736;9.330;2023-07-09T03:46:25;4.93;;;4.10;;
2416;SDS011;1219;48.736;9.330;2023-07-09T03:48:51;4.53;;;4.13;;
2416;SDS011;1219;48.736;9.330;2023-07-09T03:51:17;4.20;;;3.60;;
2416;SDS011;1219;48.736;9.330;2023-07-09T03:53:43;4.37;;;3.97;;
2416;SDS011;1219;48.736;9.330;2023-07-09T03:56:09;8.30;;;3.70;;
2416;SDS011;1219;48.736;9.330;2023-07-09T03:58:35;4.67;;;4.23;;
2416;SDS011;1219;48.736;9.330;2023-07-09T04:01:01;5.20;;;4.70;;
2416;SDS011;1219;48.736;9.330;2023-07-09T04:03:27;4.80;;;4.40;;
2416;SDS011;1219;48.736;9.330;2023-07-09T04:05:53;7.07;;;4.60;;
2416;SDS011;1219;48.736;9.330;2023-07-09T04:08:19;4.20;;;3.90;;
2416;SDS011;1219;48.736;9.330;2023-07-09T04:10:45;5.60;;;5.10;;
2416;SDS011;1219;48.736;9.330;2023-07-09T04:13:11;3.93;;;3.30;;
2416;SDS011;1219;48.736;9.330;2023-07-09T04:15:37;4.70;;;4.30;;
2416;SDS011;1219;48.736;9.330;2023-07-09T04:18:03;3.93;;;3.60;;
2416;SDS011;1219;48.736;9.330;2023-07-09T04:20:29;4.77;;;4.40;;
2416;SDS011;1219;48.736;9.330;2023-07-09T04:22:55;4.53;;;4.23;;
2416;SDS011;1219;48.736;9.330;2023-07-09T04:25:21;8.37;;;4.40;;
2416;SDS011;1219;48.736;9.330;2023-07-09T04:27:47;4.87;;;4.47;;
2416;SDS011;1219;48.736;9.330;2023-07-09T04:30:14;5.67;;;4.13;;
2416;SDS011;1219;48.736;9.330;2023-07-09T04:32:41;3.97;;;3.67;;
2416;SDS011;1219;48.736;9.330;2023-07-09T04:35:08;3.90;;;3.60;;
2416;SDS011;1219;48.736;9.330;2023-07-09T04:37:36;4.50;;;4.13;;
2416;SDS011;1219;48.736;9.330;2023-07-09T04:40:02;5.60;;;4.10;;
2416;SDS011;1219;48.736;9.330;2023-07-09T04:42:31;4.33;;;4.03;;
2416;SDS011;1219;48.736;9.330;2023-07-09T04:44:57;4.40;;;4.10;;
2416;SDS011;1219;48.736;9.330;2023-07-09T04:47:23;4.50;;;3.70;;
2416;SDS011;1219;48.736;9.330;2023-07-09T04:49:50;4.20;;;3.80;;
2416;SDS011;1219;48.736;9.330;2023-07-09T04:52:16;6.00;;;4.10;;
2416;SDS011;1219;48.736;9.330;2023-07-09T04:54:42;4.60;;;4.30;;
2416;SDS011;1219;48.736;9.330;2023-07-09T04:57:11;4.70;;;4.00;;
2416;SDS011;1219;48.736;9.330;2023-07-09T04:59:37;4.20;;;3.90;;
2416;SDS011;1219;48.736;9.330;2023-07-09T05:02:04;5.17;;;4.60;;
2416;SDS011;1219;48.736;9.330;2023-07-09T05:04:30;4.73;;;4.23;;
2416;SDS011;1219;48.736;9.330;2023-07-09T05:06:57;4.37;;;3.97;;
2416;SDS011;1219;48.736;9.330;2023-07-09T05:09:23;6.70;;;4.70;;
2416;SDS011;1219;48.736;9.330;2023-07-09T05:11:49;5.07;;;4.13;;
2416;SDS011;1219;48.736;9.330;2023-07-09T05:14:16;5.40;;;4.37;;
2416;SDS011;1219;48.736;9.330;2023-07-09T05:16:43;4.60;;;4.03;;
2416;SDS011;1219;48.736;9.330;2023-07-09T05:19:09;5.03;;;4.63;;
2416;SDS011;1219;48.736;9.330;2023-07-09T05:21:34;6.37;;;4.70;;
2416;SDS011;1219;48.736;9.330;2023-07-09T05:24:00;4.93;;;4.40;;
2416;SDS011;1219;48.736;9.330;2023-07-09T05:26:26;4.40;;;4.10;;
2416;SDS011;1219;48.736;9.330;2023-07-09T05:28:52;5.10;;;4.70;;
2416;SDS011;1219;48.736;9.330;2023-07-09T05:31:18;9.80;;;3.80;;
2416;SDS011;1219;48.736;9.330;2023-07-09T05:33:44;4.83;;;4.43;;
2416;SDS011;1219;48.736;9.330;2023-07-09T05:36:10;4.67;;;4.37;;
2416;SDS011;1219;48.736;9.330;2023-07-09T05:38:41;6.40;;;4.20;;
2416;SDS011;1219;48.736;9.330;2023-07-09T05:41:08;5.73;;;4.73;;
2416;SDS011;1219;48.736;9.330;2023-07-09T05:43:34;4.43;;;4.13;;
2416;SDS011;1219;48.736;9.330;2023-07-09T05:46:04;4.77;;;4.30;;
2416;SDS011;1219;48.736;9.330;2023-07-09T05:48:30;6.70;;;4.87;;
2416;SDS011;1219;48.736;9.330;2023-07-09T05:50:56;4.90;;;4.20;;
2416;SDS011;1219;48.736;9.330;2023-07-09T05:53:23;5.70;;;5.20;;
2416;SDS011;1219;48.736;9.330;2023-07-09T05:55:52;4.80;;;4.40;;
2416;SDS011;1219;48.736;9.330;2023-07-09T05:58:19;6.40;;;4.40;;
2416;SDS011;1219;48.736;9.330;2023-07-09T06:00:45;4.53;;;4.13;;
2416;SDS011;1219;48.736;9.330;2023-07-09T06:03:10;8.07;;;4.20;;
2416;SDS011;1219;48.736;9.330;2023-07-09T06:05:36;4.97;;;4.57;;
2416;SDS011;1219;48.736;9.330;2023-07-09T06:08:03;12.30;;;4.27;;
2416;SDS011;1219;48.736;9.330;2023-07-09T06:10:29;5.03;;;4.63;;
2416;SDS011;1219;48.736;9.330;2023-07-09T06:12:55;4.40;;;3.60;;
2416;SDS011;1219;48.736;9.330;2023-07-09T06:15:23;6.90;;;4.10;;
2416;SDS011;1219;48.736;9.330;2023-07-09T06:17:49;4.70;;;4.20;;
2416;SDS011;1219;48.736;9.330;2023-07-09T06:20:15;6.37;;;4.63;;
2416;SDS011;1219;48.736;9.330;2023-07-09T06:22:41;5.17;;;4.70;;
2416;SDS011;1219;48.736;9.330;2023-07-09T06:25:07;6.10;;;4.80;;
2416;SDS011;1219;48.736;9.330;2023-07-09T06:27:33;4.53;;;4.23;;
2416;SDS011;1219;48.736;9.330;2023-07-09T06:29:59;6.30;;;4.20;;
2416;SDS011;1219;48.736;9.330;2023-07-09T06:32:26;5.13;;;4.50;;
2416;SDS011;1219;48.736;9.330;2023-07-09T06:34:52;5.80;;;4.27;;
2416;SDS011;1219;48.736;9.330;2023-07-09T06:37:18;8.97;;;4.07;;
2416;SDS011;1219;48.736;9.330;2023-07-09T06:39:44;4.80;;;4.40;;
2416;SDS011;1219;48.736;9.330;2023-07-09T06:42:10;7.47;;;4.27;;
2416;SDS011;1219;48.736;9.330;2023-07-09T06:44:36;5.40;;;4.50;;
2416;SDS011;1219;48.736;9.330;2023-07-09T06:47:02;5.20;;;4.60;;
2416;SDS011;1219;48.736;9.330;2023-07-09T06:49:28;5.40;;;4.33;;
2416;SDS011;1219;48.736;9.330;2023-07-09T06:51:54;6.43;;;4.67;;
2416;SDS011;1219;48.736;9.330;2023-07-09T06:54:20;4.43;;;4.03;;
2416;SDS011;1219;48.736;9.330;2023-07-09T06:56:46;6.43;;;4.93;;
2416;SDS011;1219;48.736;9.330;2023-07-09T06:59:12;6.53;;;4.13;;
2416;SDS011;1219;48.736;9.330;2023-07-09T07:01:38;4.97;;;4.60;;
2416;SDS011;1219;48.736;9.330;2023-07-09T07:04:04;5.70;;;4.13;;
2416;SDS011;1219;48.736;9.330;2023-07-09T07:06:30;5.13;;;4.23;;
2416;SDS011;1219;48.736;9.330;2023-07-09T07:08:56;4.27;;;3.90;;
2416;SDS011;1219;48.736;9.330;2023-07-09T07:11:22;4.70;;;4.20;;
2416;SDS011;1219;48.736;9.330;2023-07-09T07:13:48;5.83;;;5.27;;
2416;SDS011;1219;48.736;9.330;2023-07-09T07:16:16;7.47;;;4.90;;
2416;SDS011;1219;48.736;9.330;2023-07-09T07:18:42;4.90;;;4.50;;
2416;SDS011;1219;48.736;9.330;2023-07-09T07:21:08;4.63;;;4.03;;
2416;SDS011;1219;48.736;9.330;2023-07-09T07:23:34;6.80;;;5.03;;
2416;SDS011;1219;48.736;9.330;2023-07-09T07:26:01;5.10;;;4.70;;
2416;SDS011;1219;48.736;9.330;2023-07-09T07:28:28;4.50;;;4.10;;
2416;SDS011;1219;48.736;9.330;2023-07-09T07:31:05;4.60;;;4.20;;
2416;SDS011;1219;48.736;9.330;2023-07-09T07:33:32;5.23;;;4.27;;
2416;SDS011;1219;48.736;9.330;2023-07-09T07:35:58;8.43;;;4.37;;
2416;SDS011;1219;48.736;9.330;2023-07-09T07:38:24;7.07;;;4.97;;
2416;SDS011;1219;48.736;9.330;2023-07-09T07:40:50;6.73;;;4.70;;
2416;SDS011;1219;48.736;9.330;2023-07-09T07:43:16;5.03;;;4.60;;
2416;SDS011;1219;48.736;9.330;2023-07-09T07:45:43;4.70;;;4.30;;
2416;SDS011;1219;48.736;9.330;2023-07-09T07:48:09;4.70;;;4.40;;
2416;SDS011;1219;48.736;9.330;2023-07-09T07:50:35;5.53;;;5.13;;
2416;SDS011;1219;48.736;9.330;2023-07-09T07:53:03;4.57;;;4.23;;
2416;SDS011;1219;48.736;9.330;2023-07-09T07:55:29;10.37;;;4.80;;
2416;SDS011;1219;48.736;9.330;2023-07-09T07:57:55;7.30;;;4.40;;
2416;SDS011;1219;48.736;9.330;2023-07-09T08:00:22;5.67;;;5.23;;
2416;SDS011;1219;48.736;9.330;2023-07-09T08:02:48;7.43;;;6.00;;
2416;SDS011;1219;48.736;9.330;2023-07-09T08:05:14;8.57;;;5.13;;
2416;SDS011;1219;48.736;9.330;2023-07-09T08:07:40;7.20;;;5.33;;
2416;SDS011;1219;48.736;9.330;2023-07-09T08:10:06;5.43;;;4.93;;
2416;SDS011;1219;48.736;9.330;2023-07-09T08:12:32;4.70;;;4.30;;
2416;SDS011;1219;48.736;9.330;2023-07-09T08:14:58;5.80;;;4.37;;
2416;SDS011;1219;48.736;9.330;2023-07-09T08:17:24;5.80;;;4.57;;
2416;SDS011;1219;48.736;9.330;2023-07-09T08:19:51;8.77;;;4.13;;
2416;SDS011;1219;48.736;9.330;2023-07-09T08:22:18;5.47;;;4.77;;
2416;SDS011;1219;48.736;9.330;2023-07-09T08:24:45;5.20;;;4.77;;
2416;SDS011;1219;48.736;9.330;2023-07-09T08:27:11;3.87;;;3.57;;
2416;SDS011;1219;48.736;9.330;2023-07-09T08:29:37;5.80;;;4.80;;
2416;SDS011;1219;48.736;9.330;2023-07-09T08:32:05;5.27;;;4.43;;
2416;SDS011;1219;48.736;9.330;2023-07-09T08:34:31;5.00;;;4.63;;
2416;SDS011;1219;48.736;9.330;2023-07-09T08:36:58;5.50;;;4.70;;
2416;SDS011;1219;48.736;9.330;2023-07-09T08:39:24;3.90;;;3.30;;
2416;SDS011;1219;48.736;9.330;2023-07-09T08:41:54;4.90;;;4.33;;
2416;SDS011;1219;48.736;9.330;2023-07-09T08:47:08;7.40;;;4.13;;
2416;SDS011;1219;48.736;9.330;2023-07-09T08:49:46;6.67;;;4.27;;
2416;SDS011;1219;48.736;9.330;2023-07-09T08:52:16;5.47;;;4.13;;
2416;SDS011;1219;48.736;9.330;2023-07-09T08:54:44;4.93;;;4.43;;
2416;SDS011;1219;48.736;9.330;2023-07-09T08:57:17;4.73;;;4.23;;
2416;SDS011;1219;48.736;9.330;2023-07-09T08:59:43;5.30;;;4.47;;
2416;SDS011;1219;48.736;9.330;2023-07-09T09:02:18;3.63;;;3.40;;
2416;SDS011;1219;48.736;9.330;2023-07-09T09:04:47;4.23;;;3.93;;
2416;SDS011;1219;48.736;9.330;2023-07-09T09:07:31;3.80;;;3.60;;
2416;SDS011;1219;48.736;9.330;2023-07-09T09:10:00;4.57;;;4.23;;
2416;SDS011;1219;48.736;9.330;2023-07-09T09:12:28;4.60;;;4.20;;
2416;SDS011;1219;48.736;9.330;2023-07-09T09:15:00;4.97;;;3.90;;
2416;SDS011;1219;48.736;9.330;2023-07-09T09:17:27;4.73;;;3.80;;
2416;SDS011;1219;48.736;9.330;2023-07-09T09:19:55;4.87;;;4.50;;
2416;SDS011;1219;48.736;9.330;2023-07-09T09:22:23;5.40;;;3.73;;
2416;SDS011;1219;48.736;9.330;2023-07-09T09:25:04;3.80;;;3.60;;
2416;SDS011;1219;48.736;9.330;2023-07-09T09:27:30;5.10;;;4.07;;
2416;SDS011;1219;48.736;9.330;2023-07-09T09:29:56;3.90;;;3.40;;
2416;SDS011;1219;48.736;9.330;2023-07-09T09:32:25;5.37;;;4.97;;
2416;SDS011;1219;48.736;9.330;2023-07-09T09:34:51;3.37;;;3.17;;
2416;SDS011;1219;48.736;9.330;2023-07-09T09:37:25;3.50;;;3.20;;
2416;SDS011;1219;48.736;9.330;2023-07-09T09:39:52;4.33;;;3.57;;
2416;SDS011;1219;48.736;9.330;2023-07-09T09:42:18;6.10;;;2.93;;
2416;SDS011;1219;48.736;9.330;2023-07-09T09:44:44;5.13;;;3.77;;
2416;SDS011;1219;48.736;9.330;2023-07-09T09:47:10;3.67;;;3.07;;
2416;SDS011;1219;48.736;9.330;2023-07-09T09:49:40;5.90;;;4.30;;
2416;SDS011;1219;48.736;9.330;2023-07-09T09:52:16;5.53;;;3.47;;
2416;SDS011;1219;48.736;9.330;2023-07-09T09:54:51;4.40;;;3.57;;
2416;SDS011;1219;48.736;9.330;2023-07-09T09:57:22;4.23;;;3.17;;
2416;SDS011;1219;48.736;9.330;2023-07-09T09:59:48;3.47;;;3.17;;
2416;SDS011;1219;48.736;9.330;2023-07-09T10:02:19;3.63;;;3.30;;
2416;SDS011;1219;48.736;9.330;2023-07-09T10:04:46;2.90;;;2.70;;
2416;SDS011;1219;48.736;9.330;2023-07-09T10:08:15;4.57;;;4.20;;
2416;SDS011;1219;48.736;9.330;2023-07-09T10:10:15;3.37;;;3.07;;
2416;SDS011;1219;48.736;9.330;2023-07-09T10:12:51;7.10;;;3.00;;
2416;SDS011;1219;48.736;9.330;2023-07-09T10:20:28;4.40;;;2.93;;
2416;SDS011;1219;48.736;9.330;2023-07-09T10:23:13;4.70;;;3.00;;
2416;SDS011;1219;48.736;9.330;2023-07-09T10:25:45;4.73;;;3.57;;
2416;SDS011;1219;48.736;9.330;2023-07-09T10:30:52;4.17;;;2.60;;
2416;SDS011;1219;48.736;9.330;2023-07-09T10:33:32;2.80;;;2.50;;
2416;SDS011;1219;48.736;9.330;2023-07-09T10:39:07;3.50;;;3.00;;
2416;SDS011;1219;48.736;9.330;2023-07-09T10:41:35;3.60;;;3.10;;
2416;SDS011;1219;48.736;9.330;2023-07-09T10:44:05;3.20;;;2.90;;
2416;SDS011;1219;48.736;9.330;2023-07-09T10:46:34;3.50;;;2.90;;
2416;SDS011;1219;48.736;9.330;2023-07-09T10:49:00;4.73;;;3.20;;
2416;SDS011;1219;48.736;9.330;2023-07-09T10:51:43;8.23;;;3.40;;
2416;SDS011;1219;48.736;9.330;2023-07-09T10:54:14;5.00;;;3.17;;
2416;SDS011;1219;48.736;9.330;2023-07-09T10:56:41;3.50;;;3.07;;
2416;SDS011;1219;48.736;9.330;2023-07-09T10:59:21;3.85;;;3.15;;
2416;SDS011;1219;48.736;9.330;2023-07-09T11:01:53;3.38;;;3.08;;
2416;SDS011;1219;48.736;9.330;2023-07-09T11:04:25;2.90;;;2.70;;
2416;SDS011;1219;48.736;9.330;2023-07-09T11:06:53;3.05;;;2.35;;
2416;SDS011;1219;48.736;9.330;2023-07-09T11:09:29;4.60;;;2.67;;
2416;SDS011;1219;48.736;9.330;2023-07-09T11:11:56;3.30;;;3.00;;
2416;SDS011;1219;48.736;9.330;2023-07-09T11:14:31;3.97;;;3.13;;
2416;SDS011;1219;48.736;9.330;2023-07-09T11:16:59;3.40;;;3.10;;
2416;SDS011;1219;48.736;9.330;2023-07-09T11:19:26;3.08;;;2.38;;
2416;SDS011;1219;48.736;9.330;2023-07-09T11:22:12;5.40;;;3.30;;
2416;SDS011;1219;48.736;9.330;2023-07-09T11:24:47;3.40;;;3.10;;
2416;SDS011;1219;48.736;9.330;2023-07-09T11:27:23;3.30;;;3.00;;
2416;SDS011;1219;48.736;9.330;2023-07-09T11:29:56;3.25;;;3.00;;
2416;SDS011;1219;48.736;9.330;2023-07-09T11:32:23;3.33;;;3.03;;
2416;SDS011;1219;48.736;9.330;2023-07-09T11:34:49;4.32;;;3.42;;
2416;SDS011;1219;48.736;9.330;2023-07-09T11:37:15;3.83;;;3.47;;
2416;SDS011;1219;48.736;9.330;2023-07-09T11:39:43;4.10;;;3.22;;
2416;SDS011;1219;48.736;9.330;2023-07-09T11:42:29;3.85;;;3.40;;
2416;SDS011;1219;48.736;9.330;2023-07-09T11:47:33;5.70;;;2.90;;
2416;SDS011;1219;48.736;9.330;2023-07-09T11:50:05;4.82;;;3.20;;
2416;SDS011;1219;48.736;9.330;2023-07-09T11:52:43;3.80;;;3.50;;
2416;SDS011;1219;48.736;9.330;2023-07-09T11:57:53;3.55;;;3.25;;
2416;SDS011;1219;48.736;9.330;2023-07-09T12:00:19;3.22;;;2.92;;
2416;SDS011;1219;48.736;9.330;2023-07-09T12:02:45;3.95;;;3.35;;
2416;SDS011;1219;48.736;9.330;2023-07-09T12:05:18;3.25;;;2.85;;
2416;SDS011;1219;48.736;9.330;2023-07-09T12:07:45;5.32;;;3.33;;
2416;SDS011;1219;48.736;9.330;2023-07-09T12:10:19;3.53;;;3.15;;
2416;SDS011;1219;48.736;9.330;2023-07-09T12:12:46;3.47;;;3.17;;
2416;SDS011;1219;48.736;9.330;2023-07-09T12:15:15;3.75;;;3.20;;
2416;SDS011;1219;48.736;9.330;2023-07-09T12:17:43;3.95;;;3.35;;
2416;SDS011;1219;48.736;9.330;2023-07-09T12:20:17;4.18;;;3.75;;
2416;SDS011;1219;48.736;9.330;2023-07-09T12:22:43;3.55;;;3.20;;
2416;SDS011;1219;48.736;9.330;2023-07-09T12:25:30;3.85;;;3.55;;
2416;SDS011;1219;48.736;9.330;2023-07-09T12:27:57;2.97;;;2.78;;
2416;SDS011;1219;48.736;9.330;2023-07-09T12:30:23;3.30;;;3.00;;
2416;SDS011;1219;48.736;9.330;2023-07-09T12:32:50;2.83;;;2.63;;
2416;SDS011;1219;48.736;9.330;2023-07-09T12:35:19;3.22;;;2.95;;
2416;SDS011;1219;48.736;9.330;2023-07-09T12:37:47;4.10;;;3.20;;
2416;SDS011;1219;48.736;9.330;2023-07-09T12:40:14;6.85;;;3.35;;
2416;SDS011;1219;48.736;9.330;2023-07-09T12:42:42;2.83;;;2.50;;
2416;SDS011;1219;48.736;9.330;2023-07-09T12:45:42;3.17;;;2.40;;
2416;SDS011;1219;48.736;9.330;2023-07-09T12:48:01;4.18;;;2.58;;
2416;SDS011;1219;48.736;9.330;2023-07-09T12:50:34;4.72;;;2.70;;
2416;SDS011;1219;48.736;9.330;2023-07-09T12:53:14;3.83;;;2.60;;
2416;SDS011;1219;48.736;9.330;2023-07-09T12:55:41;4.22;;;2.83;;
2416;SDS011;1219;48.736;9.330;2023-07-09T12:58:19;3.03;;;2.75;;
2416;SDS011;1219;48.736;9.330;2023-07-09T13:00:49;2.90;;;2.70;;
2416;SDS011;1219;48.736;9.330;2023-07-09T13:03:24;2.95;;;2.70;;
2416;SDS011;1219;48.736;9.330;2023-07-09T13:05:54;6.53;;;3.67;;
2416;SDS011;1219;48.736;9.330;2023-07-09T13:08:21;3.78;;;2.75;;
2416;SDS011;1219;48.736;9.330;2023-07-09T13:10:47;6.88;;;2.72;;
2416;SDS011;1219;48.736;9.330;2023-07-09T13:13:17;3.10;;;2.90;;
2416;SDS011;1219;48.736;9.330;2023-07-09T13:15:44;2.67;;;2.47;;
2416;SDS011;1219;48.736;9.330;2023-07-09T13:18:13;3.92;;;3.20;;
2416;SDS011;1219;48.736;9.330;2023-07-09T13:20:41;3.17;;;2.88;;
2416;SDS011;1219;48.736;9.330;2023-07-09T13:23:24;2.67;;;2.47;;
2416;SDS011;1219;48.736;9.330;2023-07-09T13:25:50;3.25;;;2.97;;
2416;SDS011;1219;48.736;9.330;2023-07-09T13:30:44;2.50;;;2.30;;
2416;SDS011;1219;48.736;9.330;2023-07-09T13:33:10;3.55;;;2.60;;
2416;SDS011;1219;48.736;9.330;2023-07-09T13:35:36;4.70;;;3.20;;
2416;SDS011;1219;48.736;9.330;2023-07-09T13:38:02;4.05;;;2.97;;
2416;SDS011;1219;48.736;9.330;2023-07-09T13:40:30;5.03;;;3.22;;
2416;SDS011;1219;48.736;9.330;2023-07-09T13:42:56;3.13;;;2.83;;
2416;SDS011;1219;48.736;9.330;2023-07-09T13:45:23;3.45;;;3.10;;
2416;SDS011;1219;48.736;9.330;2023-07-09T13:47:50;3.38;;;3.08;;
2416;SDS011;1219;48.736;9.330;2023-07-09T13:50:17;4.45;;;3.08;;
2416;SDS011;1219;48.736;9.330;2023-07-09T13:52:43;4.15;;;2.88;;
2416;SDS011;1219;48.736;9.330;2023-07-09T13:55:14;2.88;;;2.67;;
2416;SDS011;1219;48.736;9.330;2023-07-09T13:57:42;6.60;;;2.90;;
2416;SDS011;1219;48.736;9.330;2023-07-09T14:00:09;3.08;;;2.78;;
2416;SDS011;1219;48.736;9.330;2023-07-09T14:02:36;5.70;;;2.50;;
2416;SDS011;1219;48.736;9.330;2023-07-09T14:05:03;2.90;;;2.40;;
2416;SDS011;1219;48.736;9.330;2023-07-09T14:07:31;3.00;;;2.60;;
2416;SDS011;1219;48.736;9.330;2023-07-09T14:09:58;4.82;;;2.78;;
2416;SDS011;1219;48.736;9.330;2023-07-09T14:12:24;3.28;;;2.35;;
2416;SDS011;1219;48.736;9.330;2023-07-09T14:14:50;3.08;;;2.78;;
2416;SDS011;1219;48.736;9.330;2023-07-09T14:17:17;2.90;;;2.70;;
2416;SDS011;1219;48.736;9.330;2023-07-09T14:19:43;2.63;;;2.42;;
2416;SDS011;1219;48.736;9.330;2023-07-09T14:22:19;3.00;;;2.80;;
2416;SDS011;1219;48.736;9.330;2023-07-09T14:24:46;3.38;;;2.92;;
2416;SDS011;1219;48.736;9.330;2023-07-09T14:27:12;3.10;;;2.70;;
2416;SDS011;1219;48.736;9.330;2023-07-09T14:29:38;4.72;;;2.95;;
2416;SDS011;1219;48.736;9.330;2023-07-09T14:32:04;3.45;;;3.15;;
2416;SDS011;1219;48.736;9.330;2023-07-09T14:34:33;4.20;;;2.40;;
2416;SDS011;1219;48.736;9.330;2023-07-09T14:36:59;3.67;;;2.80;;
2416;SDS011;1219;48.736;9.330;2023-07-09T14:39:26;3.17;;;2.95;;
2416;SDS011;1219;48.736;9.330;2023-07-09T14:41:52;4.40;;;3.05;;
2416;SDS011;1219;48.736;9.330;2023-07-09T14:46:48;2.55;;;2.35;;
2416;SDS011;1219;48.736;9.330;2023-07-09T14:49:15;3.53;;;2.78;;
2416;SDS011;1219;48.736;9.330;2023-07-09T14:51:41;2.90;;;2.70;;
2416;SDS011;1219;48.736;9.330;2023-07-09T14:54:20;2.63;;;2.42;;
2416;SDS011;1219;48.736;9.330;2023-07-09T14:56:46;6.53;;;3.25;;
2416;SDS011;1219;48.736;9.330;2023-07-09T14:59:13;3.55;;;2.63;;
2416;SDS011;1219;48.736;9.330;2023-07-09T15:01:39;4.10;;;3.03;;
2416;SDS011;1219;48.736;9.330;2023-07-09T15:06:40;3.08;;;2.70;;
2416;SDS011;1219;48.736;9.330;2023-07-09T15:09:07;2.85;;;2.53;;
2416;SDS011;1219;48.736;9.330;2023-07-09T15:11:33;6.90;;;2.67;;
2416;SDS011;1219;48.736;9.330;2023-07-09T15:13:59;4.05;;;2.70;;
2416;SDS011;1219;48.736;9.330;2023-07-09T15:16:25;2.70;;;2.50;;
2416;SDS011;1219;48.736;9.330;2023-07-09T15:18:51;3.00;;;2.70;;
2416;SDS011;1219;48.736;9.330;2023-07-09T15:21:17;2.95;;;2.65;;
2416;SDS011;1219;48.736;9.330;2023-07-09T15:23:42;5.43;;;2.47;;
2416;SDS011;1219;48.736;9.330;2023-07-09T15:26:15;2.78;;;2.13;;
2416;SDS011;1219;48.736;9.330;2023-07-09T15:28:41;3.72;;;3.10;;
2416;SDS011;1219;48.736;9.330;2023-07-09T15:31:10;5.50;;;2.15;;
2416;SDS011;1219;48.736;9.330;2023-07-09T15:33:36;5.78;;;2.88;;
2416;SDS011;1219;48.736;9.330;2023-07-09T15:36:04;4.13;;;2.80;;
2416;SDS011;1219;48.736;9.330;2023-07-09T15:38:34;2.83;;;2.63;;
2416;SDS011;1219;48.736;9.330;2023-07-09T15:41:06;2.88;;;2.65;;
2416;SDS011;1219;48.736;9.330;2023-07-09T15:43:32;3.97;;;2.90;;
2416;SDS011;1219;48.736;9.330;2023-07-09T15:45:58;2.65;;;2.40;;
2416;SDS011;1219;48.736;9.330;2023-07-09T15:48:26;3.47;;;3.10;;
2416;SDS011;1219;48.736;9.330;2023-07-09T15:50:52;2.88;;;2.55;;